sensor_id;sensor_type;location;lat;lon;timestamp;temperature;humidity
16674;DHT22;8450;52.654;10.326;2023-03-23T06:01:26;9.50;99.90
16674;DHT22;8450;52.654;10.326;2023-03-23T06:03:52;9.40;99.90
16674;DHT22;8450;52.654;10.326;2023-03-23T06:06:22;9.40;99.90
16674;DHT22;8450;52.654;10.326;2023-03-23T06:08:53;9.50;99.90
16674;DHT22;8450;52.654;10.326;2023-03-23T06:11:30;9.40;99.90
16674;DHT22;8450;52.654;10.326;2023-03-23T06:14:13;9.40;99.90
16674;DHT22;8450;52.654;10.326;2023-03-23T06:16:39;9.40;99.90
16674;DHT22;8450;52.654;10.326;2023-03-23T06:19:08;9.40;99.90
16674;DHT22;8450;52.654;10.326;2023-03-23T06:21:37;9.40;99.90
16674;DHT22;8450;52.654;10.326;2023-03-23T06:24:25;9.40;99.90
16674;DHT22;8450;52.654;10.326;2023-03-23T06:26:51;9.40;99.90
16674;DHT22;8450;52.654;10.326;2023-03-23T06:29:20;9.40;99.90
16674;DHT22;8450;52.654;10.326;2023-03-23T06:31:55;9.40;99.90
16674;DHT22;8450;52.654;10.326;2023-03-23T06:34:25;9.40;99.90
16674;DHT22;8450;52.654;10.326;2023-03-23T06:37:13;9.50;99.90
16674;DHT22;8450;52.654;10.326;2023-03-23T06:40:06;9.50;99.90
16674;DHT22;8450;52.654;10.326;2023-03-23T06:42:38;9.50;99.90
16674;DHT22;8450;52.654;10.326;2023-03-23T06:45:22;9.50;99.90
16674;DHT22;8450;52.654;10.326;2023-03-23T06:47:52;9.50;99.90
16674;DHT22;8450;52.654;10.326;2023-03-23T06:50:18;9.50;99.90
16674;DHT22;8450;52.654;10.326;2023-03-23T06:52:49;9.60;99.90
16674;DHT22;8450;52.654;10.326;2023-03-23T06:55:17;9.50;99.90
16674;DHT22;8450;52.654;10.326;2023-03-23T06:57:44;9.60;99.90
16674;DHT22;8450;52.654;10.326;2023-03-23T07:00:12;9.60;99.90
16674;DHT22;8450;52.654;10.326;2023-03-23T07:02:40;9.60;99.90
16674;DHT22;8450;52.654;10.326;2023-03-23T07:05:08;9.60;99.90
16674;DHT22;8450;52.654;10.326;2023-03-23T07:07:39;9.70;99.90
16674;DHT22;8450;52.654;10.326;2023-03-23T07:10:23;9.70;99.90
16674;DHT22;8450;52.654;10.326;2023-03-23T07:12:49;9.70;99.90
16674;DHT22;8450;52.654;10.326;2023-03-23T07:15:15;9.70;99.90
16674;DHT22;8450;52.654;10.326;2023-03-23T07:17:44;9.80;99.90
16674;DHT22;8450;52.654;10.326;2023-03-23T07:20:16;9.80;99.90
16674;DHT22;8450;52.654;10.326;2023-03-23T07:22:42;9.80;99.90
16674;DHT22;8450;52.654;10.326;2023-03-23T07:25:19;9.80;99.90
16674;DHT22;8450;52.654;10.326;2023-03-23T07:27:49;9.80;99.90
16674;DHT22;8450;52.654;10.326;2023-03-23T07:30:16;9.80;99.90
16674;DHT22;8450;52.654;10.326;2023-03-23T07:32:42;9.90;99.90
16674;DHT22;8450;52.654;10.326;2023-03-23T07:35:08;9.90;99.90
16674;DHT22;8450;52.654;10.326;2023-03-23T07:38:00;9.90;99.90
16674;DHT22;8450;52.654;10.326;2023-03-23T07:40:27;9.90;99.90
16674;DHT22;8450;52.654;10.326;2023-03-23T07:42:59;10.00;99.90
16674;DHT22;8450;52.654;10.326;2023-03-23T07:45:33;10.00;99.90
16674;DHT22;8450;52.654;10.326;2023-03-23T07:47:59;10.10;99.90
16674;DHT22;8450;52.654;10.326;2023-03-23T07:50:25;10.10;99.90
16674;DHT22;8450;52.654;10.326;2023-03-23T07:52:57;10.10;99.90
16674;DHT22;8450;52.654;10.326;2023-03-23T07:55:24;10.20;99.90
16674;DHT22;8450;52.654;10.326;2023-03-23T07:58:01;10.20;99.90
16674;DHT22;8450;52.654;10.326;2023-03-23T08:00:28;10.30;99.90
16674;DHT22;8450;52.654;10.326;2023-03-23T08:02:56;10.30;99.90
16674;DHT22;8450;52.654;10.326;2023-03-23T08:05:35;10.40;99.90
16674;DHT22;8450;52.654;10.326;2023-03-23T08:08:19;10.50;99.90
16674;DHT22;8450;52.654;10.326;2023-03-23T08:11:20;10.60;99.90
16674;DHT22;8450;52.654;10.326;2023-03-23T08:14:04;10.70;99.90
16674;DHT22;8450;52.654;10.326;2023-03-23T08:16:53;10.80;99.90
16674;DHT22;8450;52.654;10.326;2023-03-23T08:19:39;10.90;99.90
16674;DHT22;8450;52.654;10.326;2023-03-23T08:22:20;11.00;99.90
16674;DHT22;8450;52.654;10.326;2023-03-23T08:25:09;11.00;99.90
16674;DHT22;8450;52.654;10.326;2023-03-23T08:27:55;11.20;99.90
16674;DHT22;8450;52.654;10.326;2023-03-23T08:30:40;11.20;99.90
16674;DHT22;8450;52.654;10.326;2023-03-23T08:33:17;11.40;99.90
16674;DHT22;8450;52.654;10.326;2023-03-23T08:36:21;11.50;99.90
16674;DHT22;8450;52.654;10.326;2023-03-23T08:39:10;11.50;99.90
16674;DHT22;8450;52.654;10.326;2023-03-23T08:41:49;11.60;99.90
16674;DHT22;8450;52.654;10.326;2023-03-23T08:44:21;11.70;99.90
16674;DHT22;8450;52.654;10.326;2023-03-23T08:47:16;11.70;99.90
16674;DHT22;8450;52.654;10.326;2023-03-23T08:50:13;11.80;99.90
16674;DHT22;8450;52.654;10.326;2023-03-23T08:53:18;11.80;99.90
16674;DHT22;8450;52.654;10.326;2023-03-23T08:55:46;11.90;99.90
16674;DHT22;8450;52.654;10.326;2023-03-23T08:58:30;11.90;99.90
16674;DHT22;8450;52.654;10.326;2023-03-23T09:01:16;11.90;99.90
16674;DHT22;8450;52.654;10.326;2023-03-23T09:03:42;12.00;99.90
16674;DHT22;8450;52.654;10.326;2023-03-23T09:06:26;12.00;99.90
16674;DHT22;8450;52.654;10.326;2023-03-23T09:08:53;12.00;99.90
16674;DHT22;8450;52.654;10.326;2023-03-23T09:11:21;12.10;99.90
16674;DHT22;8450;52.654;10.326;2023-03-23T09:13:46;12.10;99.90
16674;DHT22;8450;52.654;10.326;2023-03-23T09:16:12;12.10;99.90
16674;DHT22;8450;52.654;10.326;2023-03-23T09:18:37;12.00;99.90
16674;DHT22;8450;52.654;10.326;2023-03-23T09:21:03;12.10;99.90
16674;DHT22;8450;52.654;10.326;2023-03-23T09:23:29;12.10;99.90
16674;DHT22;8450;52.654;10.326;2023-03-23T09:25:55;12.10;99.90
16674;DHT22;8450;52.654;10.326;2023-03-23T09:28:21;12.00;99.90
16674;DHT22;8450;52.654;10.326;2023-03-23T09:30:47;12.00;99.90
16674;DHT22;8450;52.654;10.326;2023-03-23T09:33:13;12.00;99.90
16674;DHT22;8450;52.654;10.326;2023-03-23T09:35:39;12.00;99.90
16674;DHT22;8450;52.654;10.326;2023-03-23T09:38:08;12.00;99.90
16674;DHT22;8450;52.654;10.326;2023-03-23T09:40:43;12.00;99.90
16674;DHT22;8450;52.654;10.326;2023-03-23T09:51:17;12.00;99.90
16674;DHT22;8450;52.654;10.326;2023-03-23T09:53:50;12.00;99.90
16674;DHT22;8450;52.654;10.326;2023-03-23T09:56:17;12.10;99.90
16674;DHT22;8450;52.654;10.326;2023-03-23T09:58:53;12.10;99.90
16674;DHT22;8450;52.654;10.326;2023-03-23T10:01:34;12.10;99.90
16674;DHT22;8450;52.654;10.326;2023-03-23T10:04:10;12.10;99.90
16674;DHT22;8450;52.654;10.326;2023-03-23T10:06:38;12.10;99.90
16674;DHT22;8450;52.654;10.326;2023-03-23T10:09:05;12.20;99.90
16674;DHT22;8450;52.654;10.326;2023-03-23T10:11:40;12.20;99.90
16674;DHT22;8450;52.654;10.326;2023-03-23T10:19:38;12.30;99.90
16674;DHT22;8450;52.654;10.326;2023-03-23T10:22:09;12.30;99.90
16674;DHT22;8450;52.654;10.326;2023-03-23T10:24:47;12.40;99.90
16674;DHT22;8450;52.654;10.326;2023-03-23T10:27:23;12.40;99.90
16674;DHT22;8450;52.654;10.326;2023-03-23T10:30:02;12.40;99.90
16674;DHT22;8450;52.654;10.326;2023-03-23T10:33:05;12.40;99.90
16674;DHT22;8450;52.654;10.326;2023-03-23T10:35:34;12.40;99.90
16674;DHT22;8450;52.654;10.326;2023-03-23T10:38:03;12.40;99.90
16674;DHT22;8450;52.654;10.326;2023-03-23T10:40:31;12.50;99.90
16674;DHT22;8450;52.654;10.326;2023-03-23T10:43:00;12.50;99.90
16674;DHT22;8450;52.654;10.326;2023-03-23T10:45:28;12.40;99.90
16674;DHT22;8450;52.654;10.326;2023-03-23T10:48:30;12.40;99.90
16674;DHT22;8450;52.654;10.326;2023-03-23T10:51:00;12.40;99.90
16674;DHT22;8450;52.654;10.326;2023-03-23T10:53:32;12.40;99.90
16674;DHT22;8450;52.654;10.326;2023-03-23T10:55:59;12.40;99.90
16674;DHT22;8450;52.654;10.326;2023-03-23T10:58:33;12.30;99.90
16674;DHT22;8450;52.654;10.326;2023-03-23T11:01:00;12.30;99.90
16674;DHT22;8450;52.654;10.326;2023-03-23T11:03:38;12.30;99.90
16674;DHT22;8450;52.654;10.326;2023-03-23T11:06:09;12.30;99.90
16674;DHT22;8450;52.654;10.326;2023-03-23T11:08:46;12.30;99.90
16674;DHT22;8450;52.654;10.326;2023-03-23T11:11:20;12.30;99.90
16674;DHT22;8450;52.654;10.326;2023-03-23T11:13:49;12.30;99.90
16674;DHT22;8450;52.654;10.326;2023-03-23T11:16:28;12.40;99.90
16674;DHT22;8450;52.654;10.326;2023-03-23T11:18:54;12.40;99.90
16674;DHT22;8450;52.654;10.326;2023-03-23T11:21:22;12.50;99.90
16674;DHT22;8450;52.654;10.326;2023-03-23T11:23:53;12.60;99.90
16674;DHT22;8450;52.654;10.326;2023-03-23T11:26:30;12.60;99.90
16674;DHT22;8450;52.654;10.326;2023-03-23T11:29:15;12.70;99.90
16674;DHT22;8450;52.654;10.326;2023-03-23T11:31:48;12.80;99.90
16674;DHT22;8450;52.654;10.326;2023-03-23T11:34:22;12.80;99.90
16674;DHT22;8450;52.654;10.326;2023-03-23T11:36:55;12.80;99.90
16674;DHT22;8450;52.654;10.326;2023-03-23T11:39:27;12.80;99.90
16674;DHT22;8450;52.654;10.326;2023-03-23T11:41:54;12.80;99.90
16674;DHT22;8450;52.654;10.326;2023-03-23T11:44:23;12.80;99.90
16674;DHT22;8450;52.654;10.326;2023-03-23T11:47:03;12.80;99.90
16674;DHT22;8450;52.654;10.326;2023-03-23T11:52:16;12.70;99.90
16674;DHT22;8450;52.654;10.326;2023-03-23T11:55:01;12.70;99.90
16674;DHT22;8450;52.654;10.326;2023-03-23T11:57:30;12.70;99.90
16674;DHT22;8450;52.654;10.326;2023-03-23T11:59:56;12.70;99.90
16674;DHT22;8450;52.654;10.326;2023-03-23T12:02:52;12.70;99.90
16674;DHT22;8450;52.654;10.326;2023-03-23T12:13:39;12.80;99.90
16674;DHT22;8450;52.654;10.326;2023-03-23T12:19:31;12.70;99.90
16674;DHT22;8450;52.654;10.326;2023-03-23T12:24:31;12.60;99.90
16674;DHT22;8450;52.654;10.326;2023-03-23T12:35:40;12.40;99.90
16674;DHT22;8450;52.654;10.326;2023-03-23T12:38:32;12.40;99.90
16674;DHT22;8450;52.654;10.326;2023-03-23T12:41:18;12.40;99.90
16674;DHT22;8450;52.654;10.326;2023-03-23T12:44:05;12.30;99.90
16674;DHT22;8450;52.654;10.326;2023-03-23T12:46:50;12.20;99.90
16674;DHT22;8450;52.654;10.326;2023-03-23T12:57:59;11.90;99.90
16674;DHT22;8450;52.654;10.326;2023-03-23T13:03:33;11.70;99.90
16674;DHT22;8450;52.654;10.326;2023-03-23T13:06:12;11.60;99.90
16674;DHT22;8450;52.654;10.326;2023-03-23T13:08:47;11.50;99.90
16674;DHT22;8450;52.654;10.326;2023-03-23T13:11:25;11.50;99.90
16674;DHT22;8450;52.654;10.326;2023-03-23T13:13:57;11.50;99.90
16674;DHT22;8450;52.654;10.326;2023-03-23T13:16:55;11.40;99.90
16674;DHT22;8450;52.654;10.326;2023-03-23T13:19:29;11.40;99.90
16674;DHT22;8450;52.654;10.326;2023-03-23T13:22:09;11.40;99.90
16674;DHT22;8450;52.654;10.326;2023-03-23T13:24:45;11.30;99.90
16674;DHT22;8450;52.654;10.326;2023-03-23T13:27:12;11.30;99.90
16674;DHT22;8450;52.654;10.326;2023-03-23T13:29:44;11.30;99.90
16674;DHT22;8450;52.654;10.326;2023-03-23T13:32:17;11.30;99.90
16674;DHT22;8450;52.654;10.326;2023-03-23T13:34:43;11.30;99.90
16674;DHT22;8450;52.654;10.326;2023-03-23T13:37:23;11.30;99.90
16674;DHT22;8450;52.654;10.326;2023-03-23T13:39:57;11.30;99.90
16674;DHT22;8450;52.654;10.326;2023-03-23T13:42:29;11.30;99.90
16674;DHT22;8450;52.654;10.326;2023-03-23T13:47:47;11.20;99.90
16674;DHT22;8450;52.654;10.326;2023-03-23T13:50:26;11.20;99.90
16674;DHT22;8450;52.654;10.326;2023-03-23T13:53:13;11.20;99.90
16674;DHT22;8450;52.654;10.326;2023-03-23T13:55:42;11.20;99.90
16674;DHT22;8450;52.654;10.326;2023-03-23T14:03:40;11.10;99.90
16674;DHT22;8450;52.654;10.326;2023-03-23T14:06:19;11.10;99.90
16674;DHT22;8450;52.654;10.326;2023-03-23T14:09:07;11.00;99.90
16674;DHT22;8450;52.654;10.326;2023-03-23T14:11:49;11.00;99.90
16674;DHT22;8450;52.654;10.326;2023-03-23T14:14:32;11.00;99.90
16674;DHT22;8450;52.654;10.326;2023-03-23T14:17:10;11.00;99.90
16674;DHT22;8450;52.654;10.326;2023-03-23T14:19:39;10.90;99.90
16674;DHT22;8450;52.654;10.326;2023-03-23T14:22:17;10.90;99.90
16674;DHT22;8450;52.654;10.326;2023-03-23T14:24:43;10.90;99.90
16674;DHT22;8450;52.654;10.326;2023-03-23T14:27:11;10.90;99.90
16674;DHT22;8450;52.654;10.326;2023-03-23T14:29:37;10.90;99.90
16674;DHT22;8450;52.654;10.326;2023-03-23T14:32:06;10.80;99.90
16674;DHT22;8450;52.654;10.326;2023-03-23T14:34:34;10.90;99.90
16674;DHT22;8450;52.654;10.326;2023-03-23T14:37:00;10.90;99.90
16674;DHT22;8450;52.654;10.326;2023-03-23T14:39:28;11.00;99.90
16674;DHT22;8450;52.654;10.326;2023-03-23T14:41:56;11.00;99.90
16674;DHT22;8450;52.654;10.326;2023-03-23T14:44:33;11.00;99.90
16674;DHT22;8450;52.654;10.326;2023-03-23T14:47:02;11.10;99.90
16674;DHT22;8450;52.654;10.326;2023-03-23T14:49:35;11.10;99.90
16674;DHT22;8450;52.654;10.326;2023-03-23T14:52:24;11.20;99.90
16674;DHT22;8450;52.654;10.326;2023-03-23T14:54:50;11.20;99.90
16674;DHT22;8450;52.654;10.326;2023-03-23T14:59:51;11.30;99.90
16674;DHT22;8450;52.654;10.326;2023-03-23T15:02:31;11.40;99.90
16674;DHT22;8450;52.654;10.326;2023-03-23T15:05:20;11.40;99.90
16674;DHT22;8450;52.654;10.326;2023-03-23T15:07:51;11.40;99.90
16674;DHT22;8450;52.654;10.326;2023-03-23T15:10:19;11.50;99.90
16674;DHT22;8450;52.654;10.326;2023-03-23T15:12:47;11.40;99.90
16674;DHT22;8450;52.654;10.326;2023-03-23T15:15:22;11.50;99.90
16674;DHT22;8450;52.654;10.326;2023-03-23T15:17:49;11.50;99.90
16674;DHT22;8450;52.654;10.326;2023-03-23T15:20:27;11.50;99.90
16674;DHT22;8450;52.654;10.326;2023-03-23T15:22:53;11.50;99.90
16674;DHT22;8450;52.654;10.326;2023-03-23T15:27:54;11.50;99.90
16674;DHT22;8450;52.654;10.326;2023-03-23T15:33:11;11.50;99.90
16674;DHT22;8450;52.654;10.326;2023-03-23T15:35:46;11.40;99.90
16674;DHT22;8450;52.654;10.326;2023-03-23T15:38:22;11.40;99.90
16674;DHT22;8450;52.654;10.326;2023-03-23T15:40:53;11.40;99.90
16674;DHT22;8450;52.654;10.326;2023-03-23T15:43:22;11.40;99.90
16674;DHT22;8450;52.654;10.326;2023-03-23T15:48:26;11.30;99.90
16674;DHT22;8450;52.654;10.326;2023-03-23T15:50:52;11.40;99.90
16674;DHT22;8450;52.654;10.326;2023-03-23T15:53:32;11.30;99.90
16674;DHT22;8450;52.654;10.326;2023-03-23T15:56:00;11.40;99.90
16674;DHT22;8450;52.654;10.326;2023-03-23T15:58:27;11.40;99.90
16674;DHT22;8450;52.654;10.326;2023-03-23T16:00:53;11.40;99.90
16674;DHT22;8450;52.654;10.326;2023-03-23T16:03:28;11.40;99.90
16674;DHT22;8450;52.654;10.326;2023-03-23T16:05:56;11.40;99.90
16674;DHT22;8450;52.654;10.326;2023-03-23T16:08:24;11.40;99.90
16674;DHT22;8450;52.654;10.326;2023-03-23T16:10:50;11.40;99.90
16674;DHT22;8450;52.654;10.326;2023-03-23T16:13:15;11.40;99.90
16674;DHT22;8450;52.654;10.326;2023-03-23T16:15:43;11.40;99.90
16674;DHT22;8450;52.654;10.326;2023-03-23T16:18:20;11.50;99.90
16674;DHT22;8450;52.654;10.326;2023-03-23T16:20:48;11.50;99.90
16674;DHT22;8450;52.654;10.326;2023-03-23T16:23:14;11.50;99.90
16674;DHT22;8450;52.654;10.326;2023-03-23T16:25:40;11.50;99.90
16674;DHT22;8450;52.654;10.326;2023-03-23T16:28:10;11.60;99.90
16674;DHT22;8450;52.654;10.326;2023-03-23T16:30:36;11.60;99.90
16674;DHT22;8450;52.654;10.326;2023-03-23T16:33:01;11.60;99.90
16674;DHT22;8450;52.654;10.326;2023-03-23T16:35:27;11.60;99.90
16674;DHT22;8450;52.654;10.326;2023-03-23T16:37:55;11.60;99.90
16674;DHT22;8450;52.654;10.326;2023-03-23T16:40:21;11.60;99.90
16674;DHT22;8450;52.654;10.326;2023-03-23T16:42:47;11.60;99.90
16674;DHT22;8450;52.654;10.326;2023-03-23T16:45:14;11.60;99.90
16674;DHT22;8450;52.654;10.326;2023-03-23T16:47:40;11.60;99.90
16674;DHT22;8450;52.654;10.326;2023-03-23T16:50:08;11.50;99.90
16674;DHT22;8450;52.654;10.326;2023-03-23T16:52:40;11.50;99.90
16674;DHT22;8450;52.654;10.326;2023-03-23T16:55:07;11.50;99.90
